Scotland, Missouri
Current Conditions -  °F | °C
As of 6:53 AM on Saturday 25 Oct 2014 (Local Time) from KJLN Reporting Station
Clear Clear  
Wind Chill: 62°   Ceiling: Unl
Heat Index: 62°   Visibility: 9mi
Dew Point: 59°   Wind: 8mph
Humidity: 90%   Direction: 210°SSW
Pressure: 30.07"   Gusts: NA
Location:  37.1542°N, 94.2882°W
Report Text: KJLN 251153Z 21007KT 9SM CLR 17/15 A3007 RMK AO2 SLP176 T01670150 10189 20167 51003
Loading
Personal Weather Stations






























Interactive Weather Map
Tropical Storm Tracking
New forecast layout! Learn more

10-Day Weather Forecast

Advertisements
Track Severe Weather on mobile